createdAt,value
2017-06-20T00:00:30.766Z,0
2017-06-20T00:01:45.360Z,0
2017-06-20T00:02:30.769Z,0
2017-06-20T00:03:45.108Z,0
2017-06-20T00:04:30.518Z,0
2017-06-20T00:05:30.849Z,0
2017-06-20T00:06:30.884Z,0
2017-06-20T00:07:30.904Z,0
2017-06-20T00:08:30.929Z,0
2017-06-20T00:10:30.711Z,0
2017-06-20T00:11:31.008Z,0
2017-06-20T00:12:45.652Z,0
2017-06-20T00:13:30.760Z,0
2017-06-20T00:14:31.089Z,0
2017-06-20T00:15:45.736Z,0
2017-06-20T00:16:30.839Z,0
2017-06-20T00:17:45.789Z,0
2017-06-20T00:18:31.198Z,0
2017-06-20T00:19:31.225Z,0
2017-06-20T00:20:31.251Z,0
2017-06-20T00:21:30.974Z,0
2017-06-20T00:23:45.950Z,0
2017-06-20T00:24:31.358Z,0
2017-06-20T00:25:46.003Z,0
2017-06-20T00:26:31.416Z,0
2017-06-20T00:27:31.437Z,0
2017-06-20T00:28:31.462Z,0
2017-06-20T00:29:46.106Z,0
2017-06-20T00:30:31.518Z,0
2017-06-20T00:31:31.239Z,0
2017-06-20T00:32:46.187Z,0
2017-06-20T00:33:46.215Z,0
2017-06-20T00:34:46.241Z,0
2017-06-20T00:35:31.349Z,0
2017-06-20T00:36:31.424Z,0
2017-06-20T00:37:31.702Z,0
2017-06-20T00:38:31.776Z,0
2017-06-20T00:39:31.754Z,0
2017-06-20T00:40:31.782Z,0
2017-06-20T00:41:31.510Z,0
2017-06-20T00:42:46.454Z,0
2017-06-20T00:43:31.862Z,0
2017-06-20T00:44:31.887Z,0
2017-06-20T00:45:31.922Z,0
2017-06-20T00:47:01.180Z,0
2017-06-20T00:47:31.976Z,0
2017-06-20T00:48:46.614Z,0
2017-06-20T00:49:32.022Z,0
2017-06-20T00:50:31.746Z,0
2017-06-20T00:51:31.774Z,0
2017-06-20T00:52:32.104Z,0
2017-06-20T00:53:32.130Z,0
2017-06-20T00:54:32.158Z,0
2017-06-20T00:55:32.181Z,0
2017-06-20T00:56:32.211Z,0
2017-06-20T00:57:32.284Z,0
2017-06-20T00:58:32.262Z,0
2017-06-20T00:59:32.287Z,0
2017-06-20T01:00:32.355Z,0
2017-06-20T01:01:46.959Z,0
2017-06-20T01:02:32.373Z,0
2017-06-20T01:03:32.395Z,0
2017-06-20T01:04:32.423Z,0
2017-06-20T01:05:47.065Z,0
2017-06-20T01:06:47.099Z,0
2017-06-20T01:07:32.500Z,0
2017-06-20T01:08:32.528Z,0
2017-06-20T01:09:32.552Z,0
2017-06-20T01:10:32.577Z,0
2017-06-20T01:11:32.608Z,0
2017-06-20T01:13:32.658Z,0
2017-06-20T01:14:47.303Z,0
2017-06-20T01:15:32.719Z,0
2017-06-20T01:16:47.359Z,0
2017-06-20T01:17:47.383Z,0
2017-06-20T01:18:32.792Z,0
2017-06-20T01:19:32.820Z,0
2017-06-20T01:20:47.462Z,0
2017-06-20T01:21:32.870Z,0
2017-06-20T01:22:32.898Z,0
2017-06-20T01:23:47.539Z,0
2017-06-20T01:24:32.953Z,0
2017-06-20T01:25:32.369Z,0
2017-06-20T01:26:33.003Z,0
2017-06-20T01:27:33.031Z,0
2017-06-20T01:28:33.055Z,0
2017-06-20T01:29:33.082Z,0
2017-06-20T01:30:32.809Z,0
2017-06-20T01:31:33.133Z,0
2017-06-20T01:32:47.777Z,0
2017-06-20T01:34:02.421Z,0
2017-06-20T01:34:33.226Z,0
2017-06-20T01:35:47.858Z,0
2017-06-20T01:36:47.883Z,0
2017-06-20T01:38:33.316Z,0
2017-06-20T01:39:33.045Z,0
2017-06-20T01:40:48.020Z,0
2017-06-20T01:41:48.029Z,0
2017-06-20T01:42:33.423Z,0
2017-06-20T01:43:33.448Z,0
2017-06-20T01:44:33.474Z,0
2017-06-20T01:45:33.499Z,0
2017-06-20T01:46:33.526Z,0
2017-06-20T01:47:48.169Z,0
2017-06-20T01:48:33.577Z,0
2017-06-20T01:49:33.303Z,0
2017-06-20T01:50:33.632Z,0
2017-06-20T01:51:33.353Z,0
2017-06-20T01:52:48.300Z,0
2017-06-20T01:53:33.706Z,0
2017-06-20T01:54:33.433Z,0
2017-06-20T01:55:33.759Z,0
2017-06-20T01:56:33.184Z,0
2017-06-20T01:57:33.205Z,0
2017-06-20T01:58:33.536Z,0
2017-06-20T01:59:33.563Z,0
2017-06-20T02:00:33.945Z,0
2017-06-20T02:01:33.612Z,0
2017-06-20T02:02:48.561Z,0
2017-06-20T02:03:48.283Z,0
2017-06-20T02:04:48.611Z,0
2017-06-20T02:05:33.720Z,0
2017-06-20T02:07:34.077Z,0
2017-06-20T02:08:48.717Z,0
2017-06-20T02:09:33.828Z,0
2017-06-20T02:10:48.768Z,0
2017-06-20T02:11:34.183Z,0
2017-06-20T02:12:33.902Z,0
2017-06-20T02:13:33.926Z,0
2017-06-20T02:14:33.961Z,0
2017-06-20T02:15:34.280Z,0
2017-06-20T02:16:34.014Z,0
2017-06-20T02:17:34.336Z,0
2017-06-20T02:18:34.362Z,0
2017-06-20T02:19:34.081Z,0
2017-06-20T02:20:34.108Z,0
2017-06-20T02:21:49.057Z,0
2017-06-20T02:22:34.462Z,0
2017-06-20T02:23:49.107Z,0
2017-06-20T02:24:34.520Z,0
2017-06-20T02:25:34.544Z,0
2017-06-20T02:26:34.575Z,0
2017-06-20T02:29:48.963Z,0
2017-06-20T02:30:34.368Z,0
2017-06-20T02:31:49.012Z,0
2017-06-20T02:32:34.168Z,0
2017-06-20T02:33:49.063Z,0
2017-06-20T02:34:49.391Z,0
2017-06-20T02:35:49.116Z,0
2017-06-20T02:36:34.523Z,0
2017-06-20T02:37:34.550Z,0
2017-06-20T02:38:34.580Z,0
2017-06-20T02:39:34.609Z,0
2017-06-20T02:40:34.929Z,0
2017-06-20T02:41:34.663Z,5
2017-06-20T02:42:34.983Z,5
2017-06-20T02:43:35.006Z,5
2017-06-20T02:45:49.680Z,5
2017-06-20T02:46:34.782Z,5
2017-06-20T02:47:35.108Z,5
2017-06-20T02:48:35.134Z,5
2017-06-20T02:49:49.824Z,5
2017-06-20T02:50:34.891Z,10
2017-06-20T02:51:35.210Z,10
2017-06-20T02:52:49.857Z,10
2017-06-20T02:53:35.268Z,10
2017-06-20T02:54:35.295Z,10
2017-06-20T02:56:35.345Z,15
2017-06-20T02:57:35.370Z,15
2017-06-20T02:58:35.394Z,15
2017-06-20T02:59:35.418Z,15
2017-06-20T03:00:35.445Z,15
2017-06-20T03:01:35.471Z,20
2017-06-20T03:02:35.504Z,20
2017-06-20T03:03:35.522Z,20
2017-06-20T03:04:35.551Z,20
2017-06-20T03:05:50.192Z,20
2017-06-20T03:06:49.913Z,25
2017-06-20T03:07:35.663Z,25
2017-06-20T03:08:50.270Z,25
2017-06-20T03:09:35.683Z,25
2017-06-20T03:10:35.702Z,25
2017-06-20T03:11:50.347Z,30
2017-06-20T03:12:50.372Z,30
2017-06-20T03:13:35.779Z,30
2017-06-20T03:14:35.803Z,30
2017-06-20T03:15:35.833Z,35
2017-06-20T03:17:35.883Z,35
2017-06-20T03:19:50.554Z,40
2017-06-20T03:20:35.957Z,40
2017-06-20T03:21:35.690Z,40
2017-06-20T03:22:35.707Z,45
2017-06-20T03:24:50.688Z,45
2017-06-20T03:25:35.786Z,45
2017-06-20T03:26:35.809Z,50
2017-06-20T03:27:50.761Z,50
2017-06-20T03:28:50.783Z,50
2017-06-20T03:29:50.807Z,55
2017-06-20T03:30:35.917Z,55
2017-06-20T03:31:35.935Z,55
2017-06-20T03:33:36.293Z,60
2017-06-20T03:34:36.319Z,60
2017-06-20T03:35:36.041Z,60
2017-06-20T03:36:36.069Z,65
2017-06-20T03:37:36.396Z,65
2017-06-20T03:38:36.422Z,65
2017-06-20T03:39:51.064Z,70
2017-06-20T03:40:36.474Z,70
2017-06-20T03:41:36.195Z,70
2017-06-20T03:42:36.523Z,75
2017-06-20T03:43:51.167Z,75
2017-06-20T03:44:36.580Z,75
2017-06-20T03:45:36.001Z,75
2017-06-20T03:46:36.631Z,80
2017-06-20T03:47:36.656Z,80
2017-06-20T03:48:36.680Z,80
2017-06-20T03:49:36.101Z,85
2017-06-20T03:50:51.356Z,85
2017-06-20T03:51:36.760Z,85
2017-06-20T03:52:36.479Z,85
2017-06-20T03:53:51.427Z,85
2017-06-20T03:54:36.230Z,85
2017-06-20T03:55:51.479Z,100
2017-06-20T03:56:36.585Z,105
2017-06-20T03:57:36.939Z,115
2017-06-20T03:59:36.963Z,110
2017-06-20T04:00:36.991Z,125
2017-06-20T04:02:37.040Z,110
2017-06-20T04:04:36.488Z,110
2017-06-20T04:05:37.121Z,110
2017-06-20T04:06:36.844Z,110
2017-06-20T04:07:37.175Z,115
2017-06-20T04:08:37.200Z,160
2017-06-20T04:09:37.225Z,285
2017-06-20T04:10:37.249Z,395
2017-06-20T04:11:37.276Z,515
2017-06-20T04:12:37.301Z,590
2017-06-20T04:13:37.332Z,600
2017-06-20T04:14:37.104Z,590
2017-06-20T04:15:37.379Z,590
2017-06-20T04:16:37.111Z,650
2017-06-20T04:17:37.135Z,670
2017-06-20T04:18:37.162Z,690
2017-06-20T04:20:37.526Z,765
2017-06-20T04:21:37.550Z,800
2017-06-20T04:22:37.574Z,830
2017-06-20T04:23:52.223Z,790
2017-06-20T04:24:37.630Z,735
2017-06-20T04:25:52.285Z,835
2017-06-20T04:26:37.694Z,880
2017-06-20T04:27:52.346Z,875
2017-06-20T04:28:37.447Z,865
2017-06-20T04:29:37.476Z,855
2017-06-20T04:30:52.427Z,895
2017-06-20T04:31:37.842Z,875
2017-06-20T04:32:37.573Z,910
2017-06-20T04:34:37.631Z,965
2017-06-20T04:35:37.968Z,960
2017-06-20T04:36:37.995Z,1005
2017-06-20T04:37:38.027Z,1055
2017-06-20T04:38:37.755Z,1040
2017-06-20T04:39:37.484Z,770
2017-06-20T04:40:52.745Z,995
2017-06-20T04:41:38.156Z,830
2017-06-20T04:42:37.889Z,900
2017-06-20T04:43:37.917Z,1070
2017-06-20T04:44:52.878Z,990
2017-06-20T04:45:37.986Z,945
2017-06-20T04:46:52.948Z,965
2017-06-20T04:47:38.054Z,900
2017-06-20T04:48:38.385Z,870
2017-06-20T04:50:38.151Z,905
2017-06-20T04:51:37.579Z,785
2017-06-20T04:52:38.221Z,680
2017-06-20T04:53:38.560Z,745
2017-06-20T04:54:38.589Z,840
2017-06-20T04:55:38.623Z,890
2017-06-20T04:56:38.352Z,830
2017-06-20T04:57:38.690Z,740
2017-06-20T04:59:07.966Z,800
2017-06-20T04:59:38.453Z,785
2017-06-20T05:01:38.220Z,675
2017-06-20T05:02:53.175Z,760
2017-06-20T05:03:38.898Z,695
2017-06-20T05:04:38.631Z,730
2017-06-20T05:05:38.660Z,755
2017-06-20T05:06:38.690Z,795
2017-06-20T05:07:39.030Z,820
2017-06-20T05:08:39.071Z,1030
2017-06-20T05:09:39.101Z,1060
2017-06-20T05:10:38.835Z,895
2017-06-20T05:11:38.862Z,870
2017-06-20T05:12:53.820Z,930
2017-06-20T05:13:53.856Z,930
2017-06-20T05:15:08.511Z,990
2017-06-20T05:15:39.305Z,1020
2017-06-20T05:16:53.966Z,980
2017-06-20T05:17:39.371Z,995
2017-06-20T05:18:54.030Z,1100
2017-06-20T05:19:53.758Z,1155
2017-06-20T05:20:39.173Z,1190
2017-06-20T05:23:39.277Z,1100
2017-06-20T05:25:39.405Z,1095
2017-06-20T05:26:39.389Z,1105
2017-06-20T05:27:39.423Z,1115
2017-06-20T05:28:54.382Z,1140
2017-06-20T05:29:39.494Z,1135
2017-06-20T05:30:54.148Z,1120
2017-06-20T05:31:39.564Z,1160
2017-06-20T05:32:39.602Z,1125
2017-06-20T05:33:54.258Z,1055
2017-06-20T05:34:54.598Z,1065
2017-06-20T05:35:40.016Z,1030
2017-06-20T05:36:39.447Z,985
2017-06-20T05:37:39.478Z,985
2017-06-20T05:38:39.828Z,950
2017-06-20T05:39:40.170Z,975
2017-06-20T05:40:39.588Z,990
2017-06-20T05:41:40.240Z,1065
2017-06-20T05:42:39.967Z,935
2017-06-20T05:43:40.000Z,875
2017-06-20T05:44:40.342Z,920
2017-06-20T05:45:55.005Z,935
2017-06-20T05:46:39.811Z,980
2017-06-20T05:47:40.455Z,1075
2017-06-20T05:48:54.808Z,900
2017-06-20T05:50:55.183Z,855
2017-06-20T05:51:40.604Z,940
2017-06-20T05:52:40.635Z,975
2017-06-20T05:53:40.367Z,1095
2017-06-20T05:54:40.405Z,1070
2017-06-20T05:55:40.444Z,1110
2017-06-20T05:56:55.102Z,1080
2017-06-20T05:57:40.819Z,1015
2017-06-20T05:58:40.858Z,1050
2017-06-20T05:59:55.513Z,1105
2017-06-20T06:00:40.323Z,1135
2017-06-20T06:01:40.971Z,1080
2017-06-20T06:02:55.624Z,1150
2017-06-20T06:03:40.435Z,1195
2017-06-20T06:04:55.699Z,1120
2017-06-20T06:06:55.776Z,1220
2017-06-20T06:07:55.814Z,1215
2017-06-20T06:08:41.230Z,1220
2017-06-20T06:09:40.966Z,1175
2017-06-20T06:10:41.005Z,1205
2017-06-20T06:12:40.776Z,1085
2017-06-20T06:13:41.421Z,1020
2017-06-20T06:14:41.155Z,1015
2017-06-20T06:15:41.530Z,1060
2017-06-20T06:16:55.907Z,1070
2017-06-20T06:17:41.273Z,1085
2017-06-20T06:18:56.235Z,1010
2017-06-20T06:19:41.659Z,980
2017-06-20T06:20:56.315Z,980
2017-06-20T06:21:56.047Z,985
2017-06-20T06:22:56.390Z,975
2017-06-20T06:23:56.460Z,950
2017-06-20T06:24:40.935Z,925
2017-06-20T06:25:41.882Z,910
2017-06-20T06:26:41.924Z,955
2017-06-20T06:27:41.663Z,1020
2017-06-20T06:28:41.998Z,1065
2017-06-20T06:29:56.359Z,1145
2017-06-20T06:30:41.475Z,1075
2017-06-20T06:31:56.433Z,1075
2017-06-20T06:32:42.159Z,1105
2017-06-20T06:33:41.894Z,1125
2017-06-20T06:34:56.852Z,1205
2017-06-20T06:35:42.270Z,1210
2017-06-20T06:36:42.314Z,1140
2017-06-20T06:37:56.975Z,1100
2017-06-20T06:38:42.388Z,915
2017-06-20T06:39:42.430Z,1155
2017-06-20T06:40:42.477Z,1150
2017-06-20T06:41:42.505Z,1125
2017-06-20T06:42:42.248Z,1095
2017-06-20T06:43:42.636Z,1105
2017-06-20T06:44:42.626Z,1080
2017-06-20T06:45:42.665Z,1070
2017-06-20T06:46:57.325Z,1135
2017-06-20T06:47:42.945Z,1135
2017-06-20T06:48:42.482Z,1175
2017-06-20T06:49:42.520Z,1170
2017-06-20T06:50:42.865Z,1140
2017-06-20T06:51:42.966Z,1085
2017-06-20T06:52:57.566Z,1080
2017-06-20T06:53:57.604Z,1080
2017-06-20T06:54:42.758Z,1070
2017-06-20T06:55:43.064Z,1020
2017-06-20T06:56:43.105Z,995
2017-06-20T06:57:42.841Z,960
2017-06-20T06:58:57.859Z,945
2017-06-20T06:59:42.615Z,975
2017-06-20T07:00:43.315Z,1015
2017-06-20T07:01:43.305Z,975
2017-06-20T07:02:43.341Z,890
2017-06-20T07:03:58.003Z,910
2017-06-20T07:04:43.116Z,935
2017-06-20T07:05:43.485Z,830
2017-06-20T07:07:12.743Z,795
2017-06-20T07:07:43.643Z,810
2017-06-20T07:08:58.204Z,890
2017-06-20T07:09:43.326Z,830
2017-06-20T07:10:43.666Z,795
2017-06-20T07:11:43.726Z,765
2017-06-20T07:13:43.786Z,750
2017-06-20T07:14:58.448Z,690
2017-06-20T07:15:43.864Z,680
2017-06-20T07:16:43.903Z,670
2017-06-20T07:17:58.262Z,605
2017-06-20T07:18:58.602Z,575
2017-06-20T07:19:44.021Z,590
2017-06-20T07:20:43.808Z,615
2017-06-20T07:21:43.803Z,635
2017-06-20T07:22:44.141Z,650
2017-06-20T07:23:43.878Z,685
2017-06-20T07:24:58.840Z,750
2017-06-20T07:25:44.259Z,780
2017-06-20T07:28:44.082Z,745
2017-06-20T07:29:44.416Z,715
2017-06-20T07:30:44.462Z,720
2017-06-20T07:31:44.195Z,800
2017-06-20T07:32:59.158Z,1175
2017-06-20T07:33:44.279Z,1245
2017-06-20T07:34:44.318Z,1060
2017-06-20T07:35:44.051Z,895
2017-06-20T07:36:59.368Z,800
2017-06-20T07:37:44.738Z,730
2017-06-20T07:38:59.399Z,860
2017-06-20T07:39:44.867Z,935
2017-06-20T07:40:59.484Z,955
2017-06-20T07:41:44.598Z,910
2017-06-20T07:42:59.555Z,915
2017-06-20T07:43:59.290Z,935
2017-06-20T07:44:45.018Z,940
2017-06-20T07:45:45.060Z,920
2017-06-20T07:46:59.725Z,895
2017-06-20T07:47:44.525Z,815
2017-06-20T07:48:44.876Z,795
2017-06-20T07:49:45.254Z,775
2017-06-20T07:50:45.250Z,780
2017-06-20T07:51:45.293Z,855
2017-06-20T07:52:59.955Z,860
2017-06-20T07:53:59.990Z,830
2017-06-20T07:54:45.103Z,760
2017-06-20T07:55:45.447Z,745
2017-06-20T07:58:00.150Z,745
2017-06-20T07:58:45.566Z,745
2017-06-20T07:59:45.611Z,725
2017-06-20T08:00:45.846Z,770
2017-06-20T08:01:45.685Z,780
2017-06-20T08:02:45.423Z,775
2017-06-20T08:03:45.770Z,760
2017-06-20T08:04:45.506Z,710
2017-06-20T08:06:00.160Z,730
2017-06-20T08:06:45.930Z,690
2017-06-20T08:08:00.540Z,675
2017-06-20T08:08:45.959Z,665
2017-06-20T08:09:45.697Z,640
2017-06-20T08:10:45.738Z,590
2017-06-20T08:11:45.473Z,605
2017-06-20T08:13:00.738Z,620
2017-06-20T08:14:00.473Z,605
2017-06-20T08:14:45.591Z,590
2017-06-20T08:15:45.681Z,620
2017-06-20T08:16:46.278Z,605
2017-06-20T08:17:46.311Z,595
2017-06-20T08:19:00.674Z,570
2017-06-20T08:19:46.089Z,585
2017-06-20T08:21:46.471Z,560
2017-06-20T08:23:01.130Z,535
2017-06-20T08:24:01.200Z,530
2017-06-20T08:25:01.212Z,540
2017-06-20T08:25:46.623Z,535
2017-06-20T08:26:46.362Z,525
2017-06-20T08:27:46.705Z,530
2017-06-20T08:29:01.370Z,535
2017-06-20T08:29:46.787Z,525
2017-06-20T08:30:46.823Z,505
2017-06-20T08:31:46.867Z,505
2017-06-20T08:32:46.904Z,515
2017-06-20T08:33:46.944Z,510
2017-06-20T08:34:46.984Z,510
2017-06-20T08:35:46.721Z,485
2017-06-20T08:36:46.759Z,320
2017-06-20T08:37:46.790Z,475
2017-06-20T08:39:01.757Z,470
2017-06-20T08:40:01.186Z,455
2017-06-20T08:40:46.300Z,445
2017-06-20T08:42:46.686Z,445
2017-06-20T08:44:01.951Z,445
2017-06-20T08:44:46.761Z,335
2017-06-20T08:45:47.098Z,280
2017-06-20T08:46:47.144Z,440
2017-06-20T08:47:47.178Z,435
2017-06-20T08:48:46.952Z,395
2017-06-20T08:49:47.257Z,300
2017-06-20T08:50:46.682Z,300
2017-06-20T08:51:47.024Z,290
2017-06-20T08:52:47.363Z,290
2017-06-20T08:54:02.021Z,430
2017-06-20T08:54:47.443Z,420
2017-06-20T08:55:47.784Z,295
2017-06-20T08:56:47.525Z,280
2017-06-20T08:57:47.553Z,410
2017-06-20T08:58:47.894Z,405
2017-06-20T08:59:47.634Z,415
2017-06-20T09:01:02.285Z,265
2017-06-20T09:01:48.012Z,270
2017-06-20T09:03:47.170Z,415
2017-06-20T09:04:47.206Z,435
2017-06-20T09:05:46.936Z,430
2017-06-20T09:06:48.191Z,430
2017-06-20T09:08:02.546Z,410
2017-06-20T09:09:02.579Z,420
2017-06-20T09:09:48.305Z,400
2017-06-20T09:11:02.960Z,285
2017-06-20T09:11:48.374Z,285
2017-06-20T09:12:48.111Z,380
2017-06-20T09:13:48.444Z,380
2017-06-20T09:15:03.102Z,370
2017-06-20T09:16:03.138Z,365
2017-06-20T09:16:48.252Z,365
2017-06-20T09:17:48.595Z,360
2017-06-20T09:18:48.023Z,370
2017-06-20T09:19:48.717Z,375
2017-06-20T09:21:48.439Z,385
2017-06-20T09:22:48.169Z,365
2017-06-20T09:23:48.507Z,285
2017-06-20T09:25:03.161Z,370
2017-06-20T09:25:48.327Z,370
2017-06-20T09:26:48.040Z,360
2017-06-20T09:28:03.580Z,365
2017-06-20T09:29:03.311Z,315
2017-06-20T09:30:18.267Z,370
2017-06-20T09:30:48.763Z,375
2017-06-20T09:32:03.418Z,365
2017-06-20T09:32:48.540Z,365
2017-06-20T09:33:48.870Z,360
2017-06-20T09:34:48.903Z,365
2017-06-20T09:35:48.638Z,345
2017-06-20T09:36:48.978Z,310
2017-06-20T09:37:49.080Z,345
2017-06-20T09:38:48.444Z,350
2017-06-20T09:39:49.399Z,320
2017-06-20T09:41:04.048Z,340
2017-06-20T09:41:49.162Z,345
2017-06-20T09:42:48.899Z,335
2017-06-20T09:44:03.553Z,330
2017-06-20T09:44:49.571Z,340
2017-06-20T09:46:03.926Z,335
2017-06-20T09:46:49.349Z,345
2017-06-20T09:48:03.997Z,340
2017-06-20T09:48:49.124Z,335
2017-06-20T09:49:49.753Z,335
2017-06-20T09:50:49.185Z,335
2017-06-20T09:51:49.525Z,335
2017-06-20T09:52:49.865Z,345
2017-06-20T09:54:04.520Z,350
2017-06-20T09:54:49.680Z,345
2017-06-20T09:55:49.968Z,345
2017-06-20T09:56:49.699Z,280
2017-06-20T09:58:04.354Z,335
2017-06-20T09:59:04.693Z,345
2017-06-20T09:59:49.507Z,340
2017-06-20T10:01:50.235Z,340
2017-06-20T10:03:04.840Z,345
2017-06-20T10:04:50.290Z,355
2017-06-20T10:05:50.325Z,350
2017-06-20T10:06:50.364Z,360
2017-06-20T10:07:49.789Z,360
2017-06-20T10:08:50.436Z,355
2017-06-20T10:09:50.473Z,345
2017-06-20T10:10:50.506Z,335
2017-06-20T10:11:50.541Z,235
2017-06-20T10:13:05.197Z,220
2017-06-20T10:14:05.231Z,215
2017-06-20T10:15:04.965Z,200
2017-06-20T10:15:50.683Z,190
2017-06-20T10:16:50.725Z,185
2017-06-20T10:17:50.759Z,190
2017-06-20T10:19:05.417Z,265
2017-06-20T10:19:50.830Z,285
2017-06-20T10:20:51.164Z,295
2017-06-20T10:21:49.987Z,295
2017-06-20T10:22:50.938Z,280
2017-06-20T10:23:50.969Z,225
2017-06-20T10:25:51.044Z,295
2017-06-20T10:26:51.077Z,285
2017-06-20T10:27:50.808Z,275
2017-06-20T10:28:51.142Z,265
2017-06-20T10:29:50.877Z,200
2017-06-20T10:31:05.535Z,190
2017-06-20T10:32:05.871Z,185
2017-06-20T10:32:51.283Z,180
2017-06-20T10:34:05.636Z,175
2017-06-20T10:34:51.360Z,175
2017-06-20T10:35:51.086Z,175
2017-06-20T10:36:51.428Z,180
2017-06-20T10:37:50.854Z,185
2017-06-20T10:39:06.124Z,230
2017-06-20T10:39:51.225Z,255
2017-06-20T10:40:51.258Z,310
2017-06-20T10:41:51.601Z,315
2017-06-20T10:43:51.669Z,320
2017-06-20T10:44:51.398Z,305
2017-06-20T10:45:51.430Z,275
2017-06-20T10:47:06.087Z,215
2017-06-20T10:48:06.424Z,210
2017-06-20T10:48:51.839Z,200
2017-06-20T10:49:51.870Z,190
2017-06-20T10:51:06.578Z,185
2017-06-20T10:51:51.945Z,180
2017-06-20T10:52:51.977Z,170
2017-06-20T10:53:51.709Z,165
2017-06-20T10:54:52.045Z,165
2017-06-20T10:55:52.076Z,165
2017-06-20T10:56:52.113Z,255
2017-06-20T10:58:52.182Z,285
2017-06-20T11:00:06.836Z,295
2017-06-20T11:01:06.868Z,295
2017-06-20T11:02:06.904Z,300
2017-06-20T11:02:52.324Z,295
2017-06-20T11:03:52.352Z,295
2017-06-20T11:04:52.386Z,295
2017-06-20T11:05:52.423Z,295
2017-06-20T11:07:52.493Z,295
2017-06-20T11:08:52.521Z,290
2017-06-20T11:09:52.555Z,300
2017-06-20T11:10:52.595Z,295
2017-06-20T11:11:52.626Z,290
2017-06-20T11:12:52.663Z,280
2017-06-20T11:13:52.696Z,195
2017-06-20T11:14:52.761Z,190
2017-06-20T11:16:07.380Z,185
2017-06-20T11:17:07.469Z,180
2017-06-20T11:17:52.831Z,190
2017-06-20T11:18:52.865Z,270
2017-06-20T11:19:52.897Z,275
2017-06-20T11:20:52.932Z,280
2017-06-20T11:21:52.418Z,265
2017-06-20T11:24:07.347Z,270
2017-06-20T11:24:53.067Z,180
2017-06-20T11:25:52.808Z,170
2017-06-20T11:26:53.144Z,165
2017-06-20T11:27:52.862Z,165
2017-06-20T11:28:53.203Z,165
2017-06-20T11:29:53.236Z,255
2017-06-20T11:30:53.269Z,255
2017-06-20T11:31:53.306Z,255
2017-06-20T11:33:07.958Z,255
2017-06-20T11:33:53.372Z,260
2017-06-20T11:34:53.100Z,270
2017-06-20T11:35:53.136Z,255
2017-06-20T11:36:53.471Z,255
2017-06-20T11:37:53.503Z,275
2017-06-20T11:39:08.207Z,270
2017-06-20T11:39:53.313Z,265
2017-06-20T11:40:53.607Z,255
2017-06-20T11:41:53.335Z,240
2017-06-20T11:42:53.375Z,180
2017-06-20T11:43:53.153Z,175
2017-06-20T11:44:53.849Z,170
2017-06-20T11:45:53.778Z,165
2017-06-20T11:46:53.809Z,165
2017-06-20T11:47:53.541Z,170
2017-06-20T11:48:53.873Z,230
2017-06-20T11:49:53.604Z,235
2017-06-20T11:50:53.641Z,245
2017-06-20T11:51:53.678Z,240
2017-06-20T11:52:54.008Z,240
2017-06-20T11:54:08.666Z,240
2017-06-20T11:54:54.084Z,240
2017-06-20T11:55:53.807Z,235
2017-06-20T11:56:54.145Z,235
2017-06-20T11:57:53.577Z,240
2017-06-20T11:58:54.220Z,235
2017-06-20T11:59:54.253Z,245
2017-06-20T12:00:54.287Z,245
2017-06-20T12:02:08.932Z,245
2017-06-20T12:02:54.350Z,240
2017-06-20T12:04:08.693Z,235
2017-06-20T12:04:54.111Z,235
2017-06-20T12:05:54.143Z,225
2017-06-20T12:07:23.410Z,185
2017-06-20T12:08:09.132Z,180
2017-06-20T12:08:54.248Z,180
2017-06-20T12:10:08.892Z,220
2017-06-20T12:10:54.609Z,215
2017-06-20T12:11:54.342Z,180
2017-06-20T12:12:54.678Z,180
2017-06-20T12:14:54.748Z,175
2017-06-20T12:15:54.784Z,220
2017-06-20T12:16:55.116Z,235
2017-06-20T12:17:54.842Z,235
2017-06-20T12:19:09.496Z,235
2017-06-20T12:19:54.910Z,245
2017-06-20T12:21:24.182Z,245
2017-06-20T12:21:54.974Z,245
2017-06-20T12:23:09.629Z,230
2017-06-20T12:23:54.747Z,240
2017-06-20T12:24:55.078Z,255
2017-06-20T12:26:09.735Z,245
2017-06-20T12:26:55.147Z,245
2017-06-20T12:27:55.176Z,235
2017-06-20T12:28:55.213Z,230
2017-06-20T12:29:55.241Z,225
2017-06-20T12:30:55.275Z,235
2017-06-20T12:31:55.306Z,240
2017-06-20T12:32:55.342Z,240
2017-06-20T12:33:55.672Z,235
2017-06-20T12:34:55.448Z,235
2017-06-20T12:35:55.132Z,185
2017-06-20T12:36:55.474Z,175
2017-06-20T12:38:10.128Z,180
2017-06-20T12:38:55.234Z,180
2017-06-20T12:40:10.187Z,170
2017-06-20T12:41:10.223Z,190
2017-06-20T12:42:10.262Z,170
2017-06-20T12:42:55.367Z,165
2017-06-20T12:43:55.702Z,200
2017-06-20T12:44:55.739Z,210
2017-06-20T12:45:55.772Z,230
2017-06-20T12:46:55.802Z,200
2017-06-20T12:47:55.536Z,160
2017-06-20T12:48:55.865Z,160
2017-06-20T12:49:55.902Z,165
2017-06-20T12:51:10.554Z,170
2017-06-20T12:51:55.969Z,235
2017-06-20T12:53:10.612Z,185
2017-06-20T12:53:56.030Z,175
2017-06-20T12:55:10.684Z,230
2017-06-20T12:56:10.717Z,235
2017-06-20T12:57:10.748Z,230
2017-06-20T12:58:10.779Z,170
2017-06-20T12:58:56.293Z,170
2017-06-20T12:59:56.227Z,170
2017-06-20T13:00:56.258Z,190
2017-06-20T13:01:56.293Z,230
2017-06-20T13:02:55.722Z,235
2017-06-20T13:03:56.357Z,240
2017-06-20T13:04:56.386Z,245
2017-06-20T13:06:10.741Z,240
2017-06-20T13:06:55.845Z,240
2017-06-20T13:08:10.808Z,235
2017-06-20T13:09:11.139Z,240
2017-06-20T13:09:56.248Z,190
2017-06-20T13:11:11.203Z,185
2017-06-20T13:11:56.628Z,185
2017-06-20T13:12:56.043Z,240
2017-06-20T13:14:11.304Z,245
2017-06-20T13:15:56.752Z,245
2017-06-20T13:16:56.476Z,250
2017-06-20T13:17:56.507Z,245
2017-06-20T13:19:56.887Z,235
2017-06-20T13:20:56.659Z,235
2017-06-20T13:21:56.944Z,235
2017-06-20T13:23:11.298Z,230
2017-06-20T13:24:11.628Z,230
2017-06-20T13:25:11.666Z,230
2017-06-20T13:26:11.392Z,230
2017-06-20T13:26:56.803Z,185
2017-06-20T13:27:57.144Z,225
2017-06-20T13:29:11.798Z,190
2017-06-20T13:29:56.912Z,175
2017-06-20T13:31:11.855Z,185
2017-06-20T13:31:57.277Z,220
2017-06-20T13:32:57.300Z,215
2017-06-20T13:34:57.369Z,230
2017-06-20T13:35:57.403Z,230
2017-06-20T13:36:57.135Z,230
2017-06-20T13:37:57.167Z,235
2017-06-20T13:38:57.195Z,240
2017-06-20T13:39:57.533Z,245
2017-06-20T13:41:11.880Z,245
2017-06-20T13:41:57.596Z,235
2017-06-20T13:42:57.631Z,240
2017-06-20T13:43:57.704Z,245
2017-06-20T13:44:57.696Z,195
2017-06-20T13:45:57.426Z,230
2017-06-20T13:46:57.157Z,180
2017-06-20T13:47:57.791Z,190
2017-06-20T13:48:57.831Z,220
2017-06-20T13:50:12.226Z,215
2017-06-20T13:50:57.893Z,230
2017-06-20T13:51:57.929Z,215
2017-06-20T13:52:57.961Z,225
2017-06-20T13:54:12.609Z,210
2017-06-20T13:54:58.250Z,220
2017-06-20T13:55:58.072Z,225
2017-06-20T13:56:58.128Z,215
2017-06-20T13:57:57.545Z,215
2017-06-20T13:59:12.785Z,215
2017-06-20T13:59:57.897Z,225
2017-06-20T14:01:12.839Z,225
2017-06-20T14:01:58.305Z,225
2017-06-20T14:03:58.315Z,215
2017-06-20T14:04:58.402Z,215
2017-06-20T14:05:58.078Z,205
2017-06-20T14:06:58.420Z,210
2017-06-20T14:07:58.464Z,210
2017-06-20T14:08:58.478Z,215
2017-06-20T14:09:58.514Z,205
2017-06-20T14:10:58.238Z,200
2017-06-20T14:11:57.969Z,205
2017-06-20T14:12:58.305Z,200
2017-06-20T14:14:27.877Z,210
2017-06-20T14:14:58.420Z,215
2017-06-20T14:15:58.708Z,215
2017-06-20T14:17:58.474Z,225
2017-06-20T14:19:13.420Z,225
2017-06-20T14:19:58.886Z,175
2017-06-20T14:20:58.261Z,170
2017-06-20T14:21:58.897Z,225
2017-06-20T14:22:58.934Z,210
2017-06-20T14:23:58.969Z,165
2017-06-20T14:24:58.995Z,160
2017-06-20T14:25:59.030Z,155
2017-06-20T14:26:58.762Z,155
2017-06-20T14:27:59.093Z,200
2017-06-20T14:28:59.125Z,210
2017-06-20T14:30:13.779Z,215
2017-06-20T14:30:59.242Z,215
2017-06-20T14:31:58.917Z,220
2017-06-20T14:33:13.877Z,225
2017-06-20T14:34:13.912Z,225
2017-06-20T14:34:59.014Z,190
2017-06-20T14:36:59.383Z,205
2017-06-20T14:37:59.413Z,190
2017-06-20T14:38:59.449Z,170
2017-06-20T14:40:59.509Z,210
2017-06-20T14:41:59.543Z,210
2017-06-20T14:42:59.574Z,200
2017-06-20T14:44:00.204Z,155
2017-06-20T14:45:14.257Z,145
2017-06-20T14:45:59.671Z,180